TKJ2KA LTFJ-LTAC
Flight info
| Callsign | TKJ2KA |
|---|---|
| Flight time | 0h 35m |
| Altitude | 27000 |
| Route | VICEN UT380 ASMAP UL333 LATGA |
| Aircraft | B38M/M-SDE1FGHILORVWXY/HB1 |
Departure
| Time | 2026-04-27 09:51 |
|---|---|
| Airport | Istanbul Sabiha Gökçen International Airport (LTFJ) |
Arrival
| Time | 2026-04-27 10:26 |
|---|---|
| Airport | Esenboğa International Airport (LTAC) |
| Time | Latitude | Longitude | Altitude | Speed | Heading |
|---|---|---|---|---|---|
| 2026-04-27 09:29 | 40.90528 | 29.31875 | 313 ft | 0 kts | 154° |
| 2026-04-27 09:36 | 40.90543 | 29.31865 | 313 ft | 4 kts | 153° |
| 2026-04-27 09:36 | 40.90568 | 29.31849 | 313 ft | 4 kts | 156° |
| 2026-04-27 09:36 | 40.90592 | 29.31836 | 313 ft | 4 kts | 161° |
| 2026-04-27 09:37 | 40.90615 | 29.31827 | 312 ft | 1 kts | 164° |
| 2026-04-27 09:37 | 40.90616 | 29.31827 | 312 ft | 2 kts | 164° |
| 2026-04-27 09:39 | 40.90614 | 29.31827 | 313 ft | 1 kts | 171° |
| 2026-04-27 09:40 | 40.90597 | 29.31814 | 312 ft | 6 kts | 218° |
| 2026-04-27 09:40 | 40.90569 | 29.31761 | 313 ft | 8 kts | 238° |
| 2026-04-27 09:40 | 40.90555 | 29.31723 | 312 ft | 0 kts | 244° |
| 2026-04-27 09:43 | 40.90551 | 29.31714 | 313 ft | 4 kts | 244° |
| 2026-04-27 09:43 | 40.90534 | 29.31668 | 313 ft | 6 kts | 244° |
| 2026-04-27 09:43 | 40.90515 | 29.31616 | 312 ft | 7 kts | 244° |
| 2026-04-27 09:44 | 40.90493 | 29.31554 | 313 ft | 9 kts | 244° |
| 2026-04-27 09:44 | 40.90461 | 29.31467 | 313 ft | 12 kts | 240° |
| 2026-04-27 09:44 | 40.90379 | 29.31458 | 313 ft | 14 kts | 154° |
| 2026-04-27 09:44 | 40.90291 | 29.31498 | 313 ft | 9 kts | 193° |
| 2026-04-27 09:45 | 40.90255 | 29.31444 | 313 ft | 11 kts | 246° |
| 2026-04-27 09:45 | 40.90212 | 29.31322 | 313 ft | 18 kts | 245° |
| 2026-04-27 09:45 | 40.90152 | 29.31155 | 313 ft | 21 kts | 244° |
| 2026-04-27 09:45 | 40.90082 | 29.30969 | 313 ft | 23 kts | 245° |
| 2026-04-27 09:46 | 40.90018 | 29.30793 | 313 ft | 18 kts | 244° |
| 2026-04-27 09:46 | 40.89957 | 29.30626 | 313 ft | 21 kts | 244° |
| 2026-04-27 09:46 | 40.89930 | 29.30554 | 313 ft | 22 kts | 244° |
| 2026-04-27 09:47 | 40.89870 | 29.30393 | 312 ft | 24 kts | 244° |
| 2026-04-27 09:47 | 40.89794 | 29.30188 | 310 ft | 24 kts | 245° |
| 2026-04-27 09:47 | 40.89726 | 29.30002 | 310 ft | 24 kts | 244° |
| 2026-04-27 09:47 | 40.89652 | 29.29796 | 310 ft | 26 kts | 244° |
| 2026-04-27 09:48 | 40.89568 | 29.29571 | 305 ft | 24 kts | 244° |
| 2026-04-27 09:48 | 40.89505 | 29.29401 | 306 ft | 9 kts | 243° |
| 2026-04-27 09:48 | 40.89501 | 29.29391 | 306 ft | 3 kts | 243° |
| 2026-04-27 09:48 | 40.89463 | 29.29291 | 305 ft | 14 kts | 237° |
| 2026-04-27 09:49 | 40.89371 | 29.29269 | 305 ft | 15 kts | 157° |
| 2026-04-27 09:49 | 40.89294 | 29.29371 | 306 ft | 17 kts | 95° |
| 2026-04-27 09:49 | 40.89314 | 29.29454 | 306 ft | 0 kts | 65° |
| 2026-04-27 09:50 | 40.89316 | 29.29459 | 306 ft | 5 kts | 65° |
| 2026-04-27 09:50 | 40.89438 | 29.29792 | 311 ft | 77 kts | 64° |
| 2026-04-27 09:50 | 40.89771 | 29.30686 | 315 ft | 137 kts | 63° |
| 2026-04-27 09:50 | 40.90231 | 29.31883 | 817 ft | 151 kts | 60° |
| 2026-04-27 09:51 | 40.90722 | 29.33136 | 1659 ft | 156 kts | 62° |
| 2026-04-27 09:51 | 40.91186 | 29.34395 | 2513 ft | 156 kts | 63° |
| 2026-04-27 09:51 | 40.91684 | 29.35721 | 3129 ft | 165 kts | 64° |
| 2026-04-27 09:51 | 40.92208 | 29.37173 | 3664 ft | 184 kts | 66° |
| 2026-04-27 09:52 | 40.92762 | 29.38729 | 4407 ft | 191 kts | 66° |
| 2026-04-27 09:52 | 40.93248 | 29.40380 | 5153 ft | 200 kts | 79° |
| 2026-04-27 09:52 | 40.93125 | 29.42315 | 5545 ft | 227 kts | 112° |
| 2026-04-27 09:52 | 40.92096 | 29.43952 | 6221 ft | 244 kts | 141° |
| 2026-04-27 09:53 | 40.90573 | 29.45135 | 6252 ft | 262 kts | 154° |
| 2026-04-27 09:53 | 40.88872 | 29.46076 | 6791 ft | 270 kts | 158° |
| 2026-04-27 09:53 | 40.87130 | 29.47003 | 7584 ft | 267 kts | 156° |
| 2026-04-27 09:53 | 40.85390 | 29.47999 | 8219 ft | 279 kts | 154° |
| 2026-04-27 09:54 | 40.83637 | 29.49096 | 9010 ft | 276 kts | 153° |
| 2026-04-27 09:54 | 40.81895 | 29.50244 | 9816 ft | 283 kts | 151° |
| 2026-04-27 09:54 | 40.80130 | 29.51442 | 10599 ft | 287 kts | 152° |
| 2026-04-27 09:54 | 40.78367 | 29.52671 | 11465 ft | 284 kts | 146° |
| 2026-04-27 09:55 | 40.76922 | 29.54402 | 12316 ft | 287 kts | 124° |
| 2026-04-27 09:55 | 40.76032 | 29.56849 | 12610 ft | 306 kts | 105° |
| 2026-04-27 09:55 | 40.74993 | 29.62397 | 14015 ft | 323 kts | 102° |
| 2026-04-27 09:56 | 40.74470 | 29.65339 | 14474 ft | 339 kts | 102° |
| 2026-04-27 09:56 | 40.73915 | 29.68430 | 14987 ft | 349 kts | 100° |
| 2026-04-27 09:56 | 40.73527 | 29.71580 | 15740 ft | 355 kts | 96° |
| 2026-04-27 09:56 | 40.73319 | 29.74875 | 16102 ft | 371 kts | 90° |
| 2026-04-27 09:57 | 40.73284 | 29.78307 | 15781 ft | 376 kts | 90° |
| 2026-04-27 09:57 | 40.73238 | 29.81777 | 15611 ft | 383 kts | 90° |
| 2026-04-27 09:57 | 40.73181 | 29.85281 | 16242 ft | 383 kts | 90° |
| 2026-04-27 09:57 | 40.73118 | 29.88796 | 17027 ft | 386 kts | 90° |
| 2026-04-27 09:58 | 40.73052 | 29.92357 | 17724 ft | 391 kts | 90° |
| 2026-04-27 09:58 | 40.72983 | 29.95952 | 18447 ft | 394 kts | 90° |
| 2026-04-27 09:58 | 40.72913 | 29.99588 | 19069 ft | 399 kts | 90° |
| 2026-04-27 09:58 | 40.72840 | 30.03257 | 19654 ft | 403 kts | 90° |
| 2026-04-27 09:59 | 40.72574 | 30.06949 | 20328 ft | 408 kts | 103° |
| 2026-04-27 09:59 | 40.71698 | 30.10526 | 21019 ft | 413 kts | 108° |
| 2026-04-27 09:59 | 40.70775 | 30.14136 | 21607 ft | 419 kts | 108° |
| 2026-04-27 09:59 | 40.69825 | 30.17781 | 22258 ft | 423 kts | 108° |
| 2026-04-27 10:00 | 40.68856 | 30.21464 | 22862 ft | 427 kts | 109° |
| 2026-04-27 10:00 | 40.67886 | 30.25130 | 23442 ft | 431 kts | 109° |
| 2026-04-27 10:00 | 40.66903 | 30.28879 | 23965 ft | 436 kts | 106° |
| 2026-04-27 10:00 | 40.66369 | 30.32856 | 24445 ft | 437 kts | 94° |
| 2026-04-27 10:01 | 40.66041 | 30.36795 | 24854 ft | 441 kts | 96° |
| 2026-04-27 10:01 | 40.65694 | 30.40822 | 25283 ft | 443 kts | 95° |
| 2026-04-27 10:01 | 40.65354 | 30.44871 | 25692 ft | 446 kts | 95° |
| 2026-04-27 10:01 | 40.65014 | 30.48939 | 26084 ft | 449 kts | 95° |
| 2026-04-27 10:02 | 40.64671 | 30.53033 | 26480 ft | 451 kts | 95° |
| 2026-04-27 10:02 | 40.64325 | 30.57150 | 26811 ft | 454 kts | 96° |
| 2026-04-27 10:02 | 40.63977 | 30.61288 | 27067 ft | 455 kts | 96° |
| 2026-04-27 10:02 | 40.63625 | 30.65439 | 27254 ft | 457 kts | 96° |
| 2026-04-27 10:03 | 40.63268 | 30.69620 | 27256 ft | 465 kts | 96° |
| 2026-04-27 10:03 | 40.62578 | 30.73815 | 27257 ft | 473 kts | 105° |
| 2026-04-27 10:03 | 40.61689 | 30.78016 | 27243 ft | 479 kts | 105° |
| 2026-04-27 10:03 | 40.60800 | 30.82239 | 27241 ft | 479 kts | 105° |
| 2026-04-27 10:04 | 40.59906 | 30.86464 | 27239 ft | 479 kts | 105° |
| 2026-04-27 10:04 | 40.59011 | 30.90689 | 27234 ft | 479 kts | 105° |
| 2026-04-27 10:04 | 40.58115 | 30.94906 | 27232 ft | 479 kts | 105° |
| 2026-04-27 10:04 | 40.57216 | 30.99133 | 27232 ft | 479 kts | 105° |
| 2026-04-27 10:05 | 40.56318 | 31.03347 | 27228 ft | 479 kts | 105° |
| 2026-04-27 10:05 | 40.55416 | 31.07565 | 27223 ft | 479 kts | 105° |
| 2026-04-27 10:05 | 40.54514 | 31.11783 | 27192 ft | 479 kts | 105° |
| 2026-04-27 10:05 | 40.53610 | 31.15994 | 26912 ft | 478 kts | 105° |
| 2026-04-27 10:06 | 40.52706 | 31.20207 | 26654 ft | 479 kts | 105° |
| 2026-04-27 10:06 | 40.51797 | 31.24420 | 26385 ft | 480 kts | 105° |
| 2026-04-27 10:06 | 40.50885 | 31.28636 | 26127 ft | 480 kts | 105° |
| 2026-04-27 10:06 | 40.49973 | 31.32850 | 25873 ft | 479 kts | 105° |
| 2026-04-27 10:07 | 40.49062 | 31.37051 | 25617 ft | 477 kts | 105° |
| 2026-04-27 10:07 | 40.48153 | 31.41233 | 25361 ft | 475 kts | 105° |
| 2026-04-27 10:07 | 40.47245 | 31.45402 | 25111 ft | 474 kts | 105° |
| 2026-04-27 10:07 | 40.46342 | 31.49551 | 24860 ft | 472 kts | 105° |
| 2026-04-27 10:08 | 40.45441 | 31.53681 | 24615 ft | 470 kts | 105° |
| 2026-04-27 10:08 | 40.44540 | 31.57802 | 24372 ft | 468 kts | 105° |
| 2026-04-27 10:08 | 40.43647 | 31.61881 | 24137 ft | 459 kts | 105° |
| 2026-04-27 10:08 | 40.42777 | 31.65848 | 23911 ft | 446 kts | 105° |
| 2026-04-27 10:09 | 40.41929 | 31.69707 | 23675 ft | 434 kts | 105° |
| 2026-04-27 10:09 | 40.41101 | 31.73465 | 23407 ft | 423 kts | 105° |
| 2026-04-27 10:09 | 40.40293 | 31.77129 | 23139 ft | 413 kts | 105° |
| 2026-04-27 10:09 | 40.39502 | 31.80713 | 22871 ft | 404 kts | 105° |
| 2026-04-27 10:10 | 40.38727 | 31.84219 | 22605 ft | 396 kts | 105° |
| 2026-04-27 10:10 | 40.37965 | 31.87657 | 22191 ft | 392 kts | 105° |
| 2026-04-27 10:10 | 40.37196 | 31.91123 | 21400 ft | 399 kts | 105° |
| 2026-04-27 10:10 | 40.36417 | 31.94631 | 20753 ft | 402 kts | 105° |
| 2026-04-27 10:11 | 40.35626 | 31.98158 | 20112 ft | 404 kts | 105° |
| 2026-04-27 10:11 | 40.34833 | 32.01694 | 19576 ft | 404 kts | 105° |
| 2026-04-27 10:11 | 40.34039 | 32.05229 | 18999 ft | 405 kts | 105° |
| 2026-04-27 10:11 | 40.33392 | 32.08826 | 18230 ft | 408 kts | 93° |
| 2026-04-27 10:12 | 40.33564 | 32.12514 | 17573 ft | 405 kts | 79° |
| 2026-04-27 10:12 | 40.33964 | 32.16162 | 17001 ft | 403 kts | 80° |
| 2026-04-27 10:12 | 40.34365 | 32.19793 | 16427 ft | 401 kts | 80° |
| 2026-04-27 10:12 | 40.34767 | 32.23358 | 15858 ft | 400 kts | 80° |
| 2026-04-27 10:13 | 40.35176 | 32.26965 | 15274 ft | 400 kts | 80° |
| 2026-04-27 10:13 | 40.35586 | 32.30571 | 14696 ft | 400 kts | 80° |
| 2026-04-27 10:13 | 40.35871 | 32.34193 | 14062 ft | 402 kts | 91° |
| 2026-04-27 10:13 | 40.35372 | 32.37788 | 13327 ft | 397 kts | 105° |
| 2026-04-27 10:14 | 40.34675 | 32.41220 | 12774 ft | 384 kts | 104° |
| 2026-04-27 10:14 | 40.34009 | 32.44601 | 12242 ft | 383 kts | 103° |
| 2026-04-27 10:14 | 40.33560 | 32.46892 | 11969 ft | 384 kts | 103° |
| 2026-04-27 10:14 | 40.33331 | 32.48062 | 11884 ft | 381 kts | 103° |
| 2026-04-27 10:15 | 40.32684 | 32.51367 | 11700 ft | 364 kts | 103° |
| 2026-04-27 10:15 | 40.32073 | 32.54482 | 11535 ft | 343 kts | 103° |
| 2026-04-27 10:15 | 40.31495 | 32.57426 | 11354 ft | 324 kts | 103° |
| 2026-04-27 10:15 | 40.30949 | 32.60208 | 11195 ft | 307 kts | 104° |
| 2026-04-27 10:16 | 40.30403 | 32.62860 | 11034 ft | 298 kts | 109° |
| 2026-04-27 10:16 | 40.29357 | 32.65154 | 10855 ft | 292 kts | 134° |
| 2026-04-27 10:16 | 40.27724 | 32.66626 | 10712 ft | 282 kts | 159° |
| 2026-04-27 10:16 | 40.25841 | 32.67126 | 10553 ft | 274 kts | 182° |
| 2026-04-27 10:17 | 40.23976 | 32.66813 | 10401 ft | 269 kts | 192° |
| 2026-04-27 10:17 | 40.22110 | 32.66319 | 10260 ft | 278 kts | 193° |
| 2026-04-27 10:17 | 40.20206 | 32.65770 | 10110 ft | 282 kts | 194° |
| 2026-04-27 10:17 | 40.18288 | 32.65192 | 9923 ft | 284 kts | 194° |
| 2026-04-27 10:18 | 40.16353 | 32.64595 | 9569 ft | 286 kts | 194° |
| 2026-04-27 10:18 | 40.14425 | 32.63991 | 9260 ft | 285 kts | 194° |
| 2026-04-27 10:18 | 40.12505 | 32.63382 | 8955 ft | 283 kts | 194° |
| 2026-04-27 10:18 | 40.10572 | 32.63041 | 8702 ft | 279 kts | 175° |
| 2026-04-27 10:19 | 40.08767 | 32.63753 | 8533 ft | 265 kts | 148° |
| 2026-04-27 10:19 | 40.07465 | 32.65302 | 8460 ft | 245 kts | 124° |
| 2026-04-27 10:19 | 40.06752 | 32.67225 | 8326 ft | 229 kts | 106° |
| 2026-04-27 10:19 | 40.06292 | 32.69159 | 8193 ft | 216 kts | 105° |
| 2026-04-27 10:20 | 40.05882 | 32.71017 | 8091 ft | 212 kts | 104° |
| 2026-04-27 10:20 | 40.05338 | 32.72818 | 7854 ft | 216 kts | 122° |
| 2026-04-27 10:20 | 40.04446 | 32.74420 | 7539 ft | 219 kts | 126° |
| 2026-04-27 10:20 | 40.03537 | 32.76014 | 7177 ft | 220 kts | 126° |
| 2026-04-27 10:21 | 40.02612 | 32.77647 | 6692 ft | 225 kts | 126° |
| 2026-04-27 10:21 | 40.01694 | 32.79274 | 6336 ft | 219 kts | 126° |
| 2026-04-27 10:21 | 40.00809 | 32.80853 | 6049 ft | 214 kts | 125° |
| 2026-04-27 10:21 | 39.99936 | 32.82410 | 5753 ft | 212 kts | 126° |
| 2026-04-27 10:22 | 39.99305 | 32.84119 | 5419 ft | 210 kts | 98° |
| 2026-04-27 10:22 | 39.99459 | 32.85945 | 5200 ft | 198 kts | 64° |
| 2026-04-27 10:22 | 40.00170 | 32.87400 | 5110 ft | 185 kts | 45° |
| 2026-04-27 10:22 | 40.01107 | 32.88524 | 5034 ft | 182 kts | 35° |
| 2026-04-27 10:23 | 40.02126 | 32.89495 | 4968 ft | 181 kts | 34° |
| 2026-04-27 10:23 | 40.03150 | 32.90459 | 4829 ft | 182 kts | 34° |
| 2026-04-27 10:23 | 40.04169 | 32.91430 | 4689 ft | 181 kts | 34° |
| 2026-04-27 10:23 | 40.05172 | 32.92385 | 4673 ft | 174 kts | 34° |
| 2026-04-27 10:24 | 40.06112 | 32.93279 | 4466 ft | 164 kts | 35° |
| 2026-04-27 10:24 | 40.07022 | 32.94150 | 4214 ft | 158 kts | 34° |
| 2026-04-27 10:24 | 40.07904 | 32.95011 | 4006 ft | 158 kts | 35° |
| 2026-04-27 10:24 | 40.08792 | 32.95851 | 3839 ft | 157 kts | 33° |
| 2026-04-27 10:25 | 40.09682 | 32.96659 | 3630 ft | 155 kts | 38° |
| 2026-04-27 10:25 | 40.10545 | 32.97492 | 3389 ft | 153 kts | 35° |
| 2026-04-27 10:25 | 40.11112 | 32.98020 | 3242 ft | 148 kts | 38° |
| 2026-04-27 10:25 | 40.11900 | 32.98788 | 3138 ft | 122 kts | 37° |
| 2026-04-27 10:26 | 40.12385 | 32.99252 | 3137 ft | 55 kts | 36° |
| 2026-04-27 10:26 | 40.12590 | 32.99471 | 3139 ft | 12 kts | 70° |
| 2026-04-27 10:26 | 40.12593 | 32.99536 | 3138 ft | 9 kts | 91° |
| 2026-04-27 10:26 | 40.12591 | 32.99632 | 3137 ft | 12 kts | 91° |
| 2026-04-27 10:27 | 40.12553 | 32.99709 | 3137 ft | 12 kts | 186° |
| 2026-04-27 10:27 | 40.12482 | 32.99649 | 3137 ft | 13 kts | 218° |
| 2026-04-27 10:27 | 40.12405 | 32.99574 | 3136 ft | 15 kts | 215° |
| 2026-04-27 10:27 | 40.12316 | 32.99492 | 3136 ft | 17 kts | 216° |
| 2026-04-27 10:28 | 40.12219 | 32.99399 | 3136 ft | 18 kts | 217° |
| 2026-04-27 10:28 | 40.12113 | 32.99297 | 3136 ft | 20 kts | 216° |
| 2026-04-27 10:28 | 40.12001 | 32.99191 | 3137 ft | 15 kts | 216° |
| 2026-04-27 10:28 | 40.11949 | 32.99137 | 3137 ft | 9 kts | 217° |
| 2026-04-27 10:29 | 40.11898 | 32.99092 | 3137 ft | 9 kts | 216° |
| 2026-04-27 10:29 | 40.11846 | 32.99042 | 3137 ft | 10 kts | 216° |
| 2026-04-27 10:29 | 40.11793 | 32.98992 | 3137 ft | 10 kts | 216° |
| 2026-04-27 10:29 | 40.11729 | 32.98930 | 3137 ft | 13 kts | 217° |
| 2026-04-27 10:30 | 40.11673 | 32.98886 | 3136 ft | 7 kts | 179° |
| 2026-04-27 10:30 | 40.11640 | 32.98918 | 3136 ft | 6 kts | 126° |
| 2026-04-27 10:30 | 40.11614 | 32.98952 | 3136 ft | 2 kts | 148° |
| 2026-04-27 10:30 | 40.11603 | 32.98972 | 3136 ft | 5 kts | 119° |
| 2026-04-27 10:31 | 40.11586 | 32.98999 | 3137 ft | 3 kts | 134° |
| 2026-04-27 10:31 | 40.11577 | 32.99010 | 3137 ft | 1 kts | 139° |
| 2026-04-27 10:31 | 40.11565 | 32.99024 | 3137 ft | 1 kts | 138° |
| 2026-04-27 10:31 | 40.11562 | 32.99027 | 3137 ft | 0 kts | 138° |
| 2026-04-27 10:32 | 40.11556 | 32.99034 | 3137 ft | 0 kts | 138° |